sensor_id;sensor_type;location;lat;lon;timestamp;P1;durP1;ratioP1;P2;durP2;ratioP2
13067;SDS011;6600;51.362;6.686;2023-05-10T00:02:17;5.40;;;3.23;;
13067;SDS011;6600;51.362;6.686;2023-05-10T00:04:43;5.83;;;3.50;;
13067;SDS011;6600;51.362;6.686;2023-05-10T00:07:08;4.87;;;3.27;;
13067;SDS011;6600;51.362;6.686;2023-05-10T00:09:35;5.87;;;3.23;;
13067;SDS011;6600;51.362;6.686;2023-05-10T00:12:00;5.37;;;3.40;;
13067;SDS011;6600;51.362;6.686;2023-05-10T00:14:25;5.90;;;3.43;;
13067;SDS011;6600;51.362;6.686;2023-05-10T00:16:51;6.93;;;3.53;;
13067;SDS011;6600;51.362;6.686;2023-05-10T00:19:16;8.27;;;4.13;;
13067;SDS011;6600;51.362;6.686;2023-05-10T00:21:42;5.57;;;3.20;;
13067;SDS011;6600;51.362;6.686;2023-05-10T00:24:07;6.77;;;3.57;;
13067;SDS011;6600;51.362;6.686;2023-05-10T00:26:32;6.33;;;4.33;;
13067;SDS011;6600;51.362;6.686;2023-05-10T00:28:58;6.40;;;4.07;;
13067;SDS011;6600;51.362;6.686;2023-05-10T00:31:23;6.47;;;3.87;;
13067;SDS011;6600;51.362;6.686;2023-05-10T00:33:48;6.17;;;4.30;;
13067;SDS011;6600;51.362;6.686;2023-05-10T00:36:14;6.60;;;3.70;;
13067;SDS011;6600;51.362;6.686;2023-05-10T00:38:39;4.13;;;2.67;;
13067;SDS011;6600;51.362;6.686;2023-05-10T00:41:05;5.07;;;3.80;;
13067;SDS011;6600;51.362;6.686;2023-05-10T00:43:30;5.80;;;3.50;;
13067;SDS011;6600;51.362;6.686;2023-05-10T00:45:56;8.07;;;3.67;;
13067;SDS011;6600;51.362;6.686;2023-05-10T00:48:21;7.00;;;3.50;;
13067;SDS011;6600;51.362;6.686;2023-05-10T00:50:47;4.83;;;2.83;;
13067;SDS011;6600;51.362;6.686;2023-05-10T00:53:12;5.50;;;3.60;;
13067;SDS011;6600;51.362;6.686;2023-05-10T00:58:08;8.50;;;4.00;;
13067;SDS011;6600;51.362;6.686;2023-05-10T01:00:34;6.13;;;3.73;;
13067;SDS011;6600;51.362;6.686;2023-05-10T01:03:02;6.23;;;3.23;;
13067;SDS011;6600;51.362;6.686;2023-05-10T01:05:27;6.63;;;4.00;;
13067;SDS011;6600;51.362;6.686;2023-05-10T01:07:53;4.90;;;3.83;;
13067;SDS011;6600;51.362;6.686;2023-05-10T01:10:18;5.63;;;3.90;;
13067;SDS011;6600;51.362;6.686;2023-05-10T01:12:44;7.00;;;3.47;;
13067;SDS011;6600;51.362;6.686;2023-05-10T01:15:11;6.23;;;4.03;;
13067;SDS011;6600;51.362;6.686;2023-05-10T01:17:38;7.87;;;4.47;;
13067;SDS011;6600;51.362;6.686;2023-05-10T01:20:05;7.97;;;5.13;;
13067;SDS011;6600;51.362;6.686;2023-05-10T01:35:58;8.77;;;4.87;;
13067;SDS011;6600;51.362;6.686;2023-05-10T01:38:29;6.53;;;3.73;;
13067;SDS011;6600;51.362;6.686;2023-05-10T01:44:04;9.27;;;3.60;;
13067;SDS011;6600;51.362;6.686;2023-05-10T01:46:38;5.77;;;3.00;;
13067;SDS011;6600;51.362;6.686;2023-05-10T01:49:08;5.17;;;3.20;;
13067;SDS011;6600;51.362;6.686;2023-05-10T01:52:06;4.90;;;3.07;;
13067;SDS011;6600;51.362;6.686;2023-05-10T01:54:28;5.43;;;3.57;;
13067;SDS011;6600;51.362;6.686;2023-05-10T01:56:55;6.33;;;3.40;;
13067;SDS011;6600;51.362;6.686;2023-05-10T01:59:29;6.40;;;3.73;;
13067;SDS011;6600;51.362;6.686;2023-05-10T02:02:01;6.67;;;3.67;;
13067;SDS011;6600;51.362;6.686;2023-05-10T02:04:27;5.87;;;3.53;;
13067;SDS011;6600;51.362;6.686;2023-05-10T02:06:53;5.33;;;3.07;;
13067;SDS011;6600;51.362;6.686;2023-05-10T02:09:20;5.10;;;2.93;;
13067;SDS011;6600;51.362;6.686;2023-05-10T02:11:48;4.67;;;3.40;;
13067;SDS011;6600;51.362;6.686;2023-05-10T02:14:14;5.63;;;4.10;;
13067;SDS011;6600;51.362;6.686;2023-05-10T02:16:40;6.40;;;3.03;;
13067;SDS011;6600;51.362;6.686;2023-05-10T02:19:07;3.83;;;2.93;;
13067;SDS011;6600;51.362;6.686;2023-05-10T02:21:34;4.50;;;2.90;;
13067;SDS011;6600;51.362;6.686;2023-05-10T02:24:01;6.50;;;3.33;;
13067;SDS011;6600;51.362;6.686;2023-05-10T02:26:28;5.37;;;3.03;;
13067;SDS011;6600;51.362;6.686;2023-05-10T02:28:55;5.47;;;3.57;;
13067;SDS011;6600;51.362;6.686;2023-05-10T02:31:23;5.53;;;3.70;;
13067;SDS011;6600;51.362;6.686;2023-05-10T02:33:48;5.47;;;3.10;;
13067;SDS011;6600;51.362;6.686;2023-05-10T02:36:14;6.47;;;3.80;;
13067;SDS011;6600;51.362;6.686;2023-05-10T02:38:40;7.27;;;3.60;;
13067;SDS011;6600;51.362;6.686;2023-05-10T02:41:07;4.80;;;3.13;;
13067;SDS011;6600;51.362;6.686;2023-05-10T02:43:33;6.97;;;3.77;;
13067;SDS011;6600;51.362;6.686;2023-05-10T02:46:00;5.43;;;3.13;;
13067;SDS011;6600;51.362;6.686;2023-05-10T02:48:26;6.57;;;3.40;;
13067;SDS011;6600;51.362;6.686;2023-05-10T02:50:52;7.47;;;3.97;;
13067;SDS011;6600;51.362;6.686;2023-05-10T02:53:22;5.33;;;3.13;;
13067;SDS011;6600;51.362;6.686;2023-05-10T02:55:53;6.77;;;2.80;;
13067;SDS011;6600;51.362;6.686;2023-05-10T02:58:23;5.20;;;3.53;;
13067;SDS011;6600;51.362;6.686;2023-05-10T03:00:49;5.17;;;3.37;;
13067;SDS011;6600;51.362;6.686;2023-05-10T03:03:14;4.13;;;2.90;;
13067;SDS011;6600;51.362;6.686;2023-05-10T03:05:39;6.53;;;3.07;;
13067;SDS011;6600;51.362;6.686;2023-05-10T03:08:05;3.50;;;2.50;;
13067;SDS011;6600;51.362;6.686;2023-05-10T03:10:31;6.47;;;3.83;;
13067;SDS011;6600;51.362;6.686;2023-05-10T03:13:21;4.40;;;2.60;;
13067;SDS011;6600;51.362;6.686;2023-05-10T03:16:06;7.53;;;3.00;;
13067;SDS011;6600;51.362;6.686;2023-05-10T03:21:15;5.70;;;2.87;;
13067;SDS011;6600;51.362;6.686;2023-05-10T03:23:57;4.30;;;2.80;;
13067;SDS011;6600;51.362;6.686;2023-05-10T03:26:26;6.90;;;3.23;;
13067;SDS011;6600;51.362;6.686;2023-05-10T03:28:52;6.43;;;3.13;;
13067;SDS011;6600;51.362;6.686;2023-05-10T03:31:18;5.17;;;3.27;;
13067;SDS011;6600;51.362;6.686;2023-05-10T03:33:50;5.93;;;3.13;;
13067;SDS011;6600;51.362;6.686;2023-05-10T03:36:17;4.80;;;2.90;;
13067;SDS011;6600;51.362;6.686;2023-05-10T03:38:42;6.37;;;3.47;;
13067;SDS011;6600;51.362;6.686;2023-05-10T03:41:08;4.87;;;3.43;;
13067;SDS011;6600;51.362;6.686;2023-05-10T03:43:33;4.73;;;3.40;;
13067;SDS011;6600;51.362;6.686;2023-05-10T03:46:01;6.17;;;3.33;;
13067;SDS011;6600;51.362;6.686;2023-05-10T03:48:27;4.87;;;3.17;;
13067;SDS011;6600;51.362;6.686;2023-05-10T03:50:52;5.73;;;3.30;;
13067;SDS011;6600;51.362;6.686;2023-05-10T03:53:17;6.10;;;2.87;;
13067;SDS011;6600;51.362;6.686;2023-05-10T03:55:42;6.90;;;3.83;;
13067;SDS011;6600;51.362;6.686;2023-05-10T03:58:10;7.80;;;4.57;;
13067;SDS011;6600;51.362;6.686;2023-05-10T04:00:36;6.37;;;3.50;;
13067;SDS011;6600;51.362;6.686;2023-05-10T04:03:02;7.43;;;4.67;;
13067;SDS011;6600;51.362;6.686;2023-05-10T04:05:27;4.43;;;3.30;;
13067;SDS011;6600;51.362;6.686;2023-05-10T04:07:52;7.90;;;4.33;;
13067;SDS011;6600;51.362;6.686;2023-05-10T04:10:18;8.33;;;4.13;;
13067;SDS011;6600;51.362;6.686;2023-05-10T04:12:43;7.63;;;4.00;;
13067;SDS011;6600;51.362;6.686;2023-05-10T04:15:08;7.30;;;4.23;;
13067;SDS011;6600;51.362;6.686;2023-05-10T04:17:34;8.57;;;3.67;;
13067;SDS011;6600;51.362;6.686;2023-05-10T04:19:59;7.00;;;3.87;;
13067;SDS011;6600;51.362;6.686;2023-05-10T04:22:25;6.00;;;3.60;;
13067;SDS011;6600;51.362;6.686;2023-05-10T04:24:50;6.13;;;4.10;;
13067;SDS011;6600;51.362;6.686;2023-05-10T04:27:15;8.43;;;4.77;;
13067;SDS011;6600;51.362;6.686;2023-05-10T04:29:41;7.33;;;4.87;;
13067;SDS011;6600;51.362;6.686;2023-05-10T04:32:06;8.07;;;4.30;;
13067;SDS011;6600;51.362;6.686;2023-05-10T04:34:32;11.63;;;5.67;;
13067;SDS011;6600;51.362;6.686;2023-05-10T04:36:59;9.00;;;4.27;;
13067;SDS011;6600;51.362;6.686;2023-05-10T04:39:24;14.77;;;7.10;;
13067;SDS011;6600;51.362;6.686;2023-05-10T04:41:49;12.13;;;5.10;;
13067;SDS011;6600;51.362;6.686;2023-05-10T04:44:15;10.07;;;6.03;;
13067;SDS011;6600;51.362;6.686;2023-05-10T04:46:40;14.50;;;5.90;;
13067;SDS011;6600;51.362;6.686;2023-05-10T04:49:05;9.97;;;4.90;;
13067;SDS011;6600;51.362;6.686;2023-05-10T04:51:31;10.83;;;6.53;;
13067;SDS011;6600;51.362;6.686;2023-05-10T04:53:57;12.90;;;5.20;;
13067;SDS011;6600;51.362;6.686;2023-05-10T04:56:22;13.43;;;5.53;;
13067;SDS011;6600;51.362;6.686;2023-05-10T04:58:47;12.70;;;6.13;;
13067;SDS011;6600;51.362;6.686;2023-05-10T05:01:13;10.20;;;5.07;;
13067;SDS011;6600;51.362;6.686;2023-05-10T05:03:38;10.43;;;5.53;;
13067;SDS011;6600;51.362;6.686;2023-05-10T05:06:04;11.57;;;6.03;;
13067;SDS011;6600;51.362;6.686;2023-05-10T05:08:30;12.27;;;5.30;;
13067;SDS011;6600;51.362;6.686;2023-05-10T05:10:55;13.10;;;6.07;;
13067;SDS011;6600;51.362;6.686;2023-05-10T05:13:20;12.57;;;5.90;;
13067;SDS011;6600;51.362;6.686;2023-05-10T05:15:46;15.80;;;7.50;;
13067;SDS011;6600;51.362;6.686;2023-05-10T05:18:11;13.13;;;6.37;;
13067;SDS011;6600;51.362;6.686;2023-05-10T05:20:37;12.17;;;5.83;;
13067;SDS011;6600;51.362;6.686;2023-05-10T05:23:02;14.80;;;6.63;;
13067;SDS011;6600;51.362;6.686;2023-05-10T05:25:27;15.63;;;6.80;;
13067;SDS011;6600;51.362;6.686;2023-05-10T05:27:53;11.87;;;6.37;;
13067;SDS011;6600;51.362;6.686;2023-05-10T05:30:18;15.90;;;7.67;;
13067;SDS011;6600;51.362;6.686;2023-05-10T05:32:44;13.37;;;7.10;;
13067;SDS011;6600;51.362;6.686;2023-05-10T05:35:09;18.97;;;6.93;;
13067;SDS011;6600;51.362;6.686;2023-05-10T05:37:34;16.63;;;7.33;;
13067;SDS011;6600;51.362;6.686;2023-05-10T05:40:00;11.23;;;6.13;;
13067;SDS011;6600;51.362;6.686;2023-05-10T05:42:26;13.87;;;6.10;;
13067;SDS011;6600;51.362;6.686;2023-05-10T05:44:52;14.20;;;6.67;;
13067;SDS011;6600;51.362;6.686;2023-05-10T05:47:17;14.77;;;6.97;;
13067;SDS011;6600;51.362;6.686;2023-05-10T05:49:42;13.50;;;5.97;;
13067;SDS011;6600;51.362;6.686;2023-05-10T05:52:10;12.67;;;6.27;;
13067;SDS011;6600;51.362;6.686;2023-05-10T05:54:36;20.77;;;7.47;;
13067;SDS011;6600;51.362;6.686;2023-05-10T05:57:01;18.90;;;6.27;;
13067;SDS011;6600;51.362;6.686;2023-05-10T05:59:26;13.83;;;7.50;;
13067;SDS011;6600;51.362;6.686;2023-05-10T06:01:52;14.67;;;7.30;;
13067;SDS011;6600;51.362;6.686;2023-05-10T06:04:18;16.90;;;8.00;;
13067;SDS011;6600;51.362;6.686;2023-05-10T06:06:43;20.17;;;8.80;;
13067;SDS011;6600;51.362;6.686;2023-05-10T06:09:09;15.27;;;7.27;;
13067;SDS011;6600;51.362;6.686;2023-05-10T06:11:34;18.40;;;7.87;;
13067;SDS011;6600;51.362;6.686;2023-05-10T06:14:00;15.70;;;6.93;;
13067;SDS011;6600;51.362;6.686;2023-05-10T06:16:27;18.13;;;6.40;;
13067;SDS011;6600;51.362;6.686;2023-05-10T06:18:52;15.07;;;7.80;;
13067;SDS011;6600;51.362;6.686;2023-05-10T06:21:18;16.23;;;7.53;;
13067;SDS011;6600;51.362;6.686;2023-05-10T06:23:43;17.13;;;7.53;;
13067;SDS011;6600;51.362;6.686;2023-05-10T06:26:09;13.87;;;6.87;;
13067;SDS011;6600;51.362;6.686;2023-05-10T06:28:34;13.27;;;7.37;;
13067;SDS011;6600;51.362;6.686;2023-05-10T06:31:00;14.57;;;7.27;;
13067;SDS011;6600;51.362;6.686;2023-05-10T06:33:25;12.67;;;6.37;;
13067;SDS011;6600;51.362;6.686;2023-05-10T06:35:51;14.43;;;7.43;;
13067;SDS011;6600;51.362;6.686;2023-05-10T06:38:16;13.60;;;6.80;;
13067;SDS011;6600;51.362;6.686;2023-05-10T06:40:42;17.27;;;7.50;;
13067;SDS011;6600;51.362;6.686;2023-05-10T06:43:08;13.67;;;6.97;;
13067;SDS011;6600;51.362;6.686;2023-05-10T06:45:34;18.83;;;7.17;;
13067;SDS011;6600;51.362;6.686;2023-05-10T06:48:00;16.10;;;7.17;;
13067;SDS011;6600;51.362;6.686;2023-05-10T06:50:26;14.77;;;7.07;;
13067;SDS011;6600;51.362;6.686;2023-05-10T06:52:51;13.17;;;6.07;;
13067;SDS011;6600;51.362;6.686;2023-05-10T06:55:16;13.43;;;6.50;;
13067;SDS011;6600;51.362;6.686;2023-05-10T06:57:42;18.10;;;7.17;;
13067;SDS011;6600;51.362;6.686;2023-05-10T07:00:07;12.57;;;6.47;;
13067;SDS011;6600;51.362;6.686;2023-05-10T07:02:34;17.13;;;7.43;;
13067;SDS011;6600;51.362;6.686;2023-05-10T07:05:00;19.23;;;7.73;;
13067;SDS011;6600;51.362;6.686;2023-05-10T07:07:25;12.30;;;6.23;;
13067;SDS011;6600;51.362;6.686;2023-05-10T07:09:51;15.07;;;6.90;;
13067;SDS011;6600;51.362;6.686;2023-05-10T07:12:16;16.67;;;7.20;;
13067;SDS011;6600;51.362;6.686;2023-05-10T07:14:42;12.57;;;6.83;;
13067;SDS011;6600;51.362;6.686;2023-05-10T07:17:07;14.17;;;6.30;;
13067;SDS011;6600;51.362;6.686;2023-05-10T07:19:33;11.90;;;6.97;;
13067;SDS011;6600;51.362;6.686;2023-05-10T07:21:58;13.73;;;6.80;;
13067;SDS011;6600;51.362;6.686;2023-05-10T07:24:23;12.33;;;6.40;;
13067;SDS011;6600;51.362;6.686;2023-05-10T07:26:49;15.60;;;6.33;;
13067;SDS011;6600;51.362;6.686;2023-05-10T07:29:14;9.20;;;5.63;;
13067;SDS011;6600;51.362;6.686;2023-05-10T07:31:40;15.50;;;6.50;;
13067;SDS011;6600;51.362;6.686;2023-05-10T07:34:07;13.40;;;5.90;;
13067;SDS011;6600;51.362;6.686;2023-05-10T07:36:33;14.83;;;6.87;;
13067;SDS011;6600;51.362;6.686;2023-05-10T07:38:58;13.30;;;6.17;;
13067;SDS011;6600;51.362;6.686;2023-05-10T07:41:23;17.27;;;7.73;;
13067;SDS011;6600;51.362;6.686;2023-05-10T07:43:49;13.40;;;6.63;;
13067;SDS011;6600;51.362;6.686;2023-05-10T07:46:14;19.10;;;7.87;;
13067;SDS011;6600;51.362;6.686;2023-05-10T07:48:39;11.87;;;6.27;;
13067;SDS011;6600;51.362;6.686;2023-05-10T07:51:05;11.47;;;6.13;;
13067;SDS011;6600;51.362;6.686;2023-05-10T07:53:32;17.20;;;6.73;;
13067;SDS011;6600;51.362;6.686;2023-05-10T07:55:57;17.47;;;6.70;;
13067;SDS011;6600;51.362;6.686;2023-05-10T07:58:23;18.23;;;6.93;;
13067;SDS011;6600;51.362;6.686;2023-05-10T08:00:49;15.80;;;7.77;;
13067;SDS011;6600;51.362;6.686;2023-05-10T08:03:15;16.33;;;6.97;;
13067;SDS011;6600;51.362;6.686;2023-05-10T08:05:40;14.73;;;6.83;;
13067;SDS011;6600;51.362;6.686;2023-05-10T08:08:06;14.60;;;6.90;;
13067;SDS011;6600;51.362;6.686;2023-05-10T08:10:31;14.63;;;7.03;;
13067;SDS011;6600;51.362;6.686;2023-05-10T08:12:57;15.77;;;6.80;;
13067;SDS011;6600;51.362;6.686;2023-05-10T08:15:23;15.33;;;7.60;;
13067;SDS011;6600;51.362;6.686;2023-05-10T08:17:49;14.77;;;7.37;;
13067;SDS011;6600;51.362;6.686;2023-05-10T08:20:14;14.63;;;6.43;;
13067;SDS011;6600;51.362;6.686;2023-05-10T08:22:42;17.43;;;7.57;;
13067;SDS011;6600;51.362;6.686;2023-05-10T08:25:07;13.30;;;6.50;;
13067;SDS011;6600;51.362;6.686;2023-05-10T08:27:33;13.47;;;6.93;;
13067;SDS011;6600;51.362;6.686;2023-05-10T08:29:58;15.27;;;7.13;;
13067;SDS011;6600;51.362;6.686;2023-05-10T08:32:23;11.57;;;6.20;;
13067;SDS011;6600;51.362;6.686;2023-05-10T08:34:49;13.43;;;5.97;;
13067;SDS011;6600;51.362;6.686;2023-05-10T08:37:14;13.87;;;7.00;;
13067;SDS011;6600;51.362;6.686;2023-05-10T08:39:39;13.43;;;7.13;;
13067;SDS011;6600;51.362;6.686;2023-05-10T08:42:05;12.03;;;5.50;;
13067;SDS011;6600;51.362;6.686;2023-05-10T08:44:31;10.13;;;5.60;;
13067;SDS011;6600;51.362;6.686;2023-05-10T08:46:59;11.90;;;6.70;;
13067;SDS011;6600;51.362;6.686;2023-05-10T08:49:27;15.07;;;7.10;;
13067;SDS011;6600;51.362;6.686;2023-05-10T08:51:55;10.10;;;5.87;;
13067;SDS011;6600;51.362;6.686;2023-05-10T08:54:22;11.33;;;6.93;;
13067;SDS011;6600;51.362;6.686;2023-05-10T08:56:48;9.93;;;5.80;;
13067;SDS011;6600;51.362;6.686;2023-05-10T08:59:13;13.03;;;6.57;;
13067;SDS011;6600;51.362;6.686;2023-05-10T09:01:40;16.00;;;6.03;;
13067;SDS011;6600;51.362;6.686;2023-05-10T09:04:09;11.07;;;6.57;;
13067;SDS011;6600;51.362;6.686;2023-05-10T09:06:35;13.40;;;7.80;;
13067;SDS011;6600;51.362;6.686;2023-05-10T09:09:01;13.07;;;5.90;;
13067;SDS011;6600;51.362;6.686;2023-05-10T09:11:28;10.43;;;5.33;;
13067;SDS011;6600;51.362;6.686;2023-05-10T09:13:54;6.93;;;4.87;;
13067;SDS011;6600;51.362;6.686;2023-05-10T09:16:21;9.63;;;5.33;;
13067;SDS011;6600;51.362;6.686;2023-05-10T09:18:47;10.40;;;4.50;;
13067;SDS011;6600;51.362;6.686;2023-05-10T09:21:12;9.70;;;5.17;;
13067;SDS011;6600;51.362;6.686;2023-05-10T09:23:42;8.73;;;4.93;;
13067;SDS011;6600;51.362;6.686;2023-05-10T09:26:08;9.50;;;5.00;;
13067;SDS011;6600;51.362;6.686;2023-05-10T09:28:33;9.90;;;4.60;;
13067;SDS011;6600;51.362;6.686;2023-05-10T09:30:59;5.57;;;3.47;;
13067;SDS011;6600;51.362;6.686;2023-05-10T09:33:25;8.67;;;4.23;;
13067;SDS011;6600;51.362;6.686;2023-05-10T09:35:51;8.60;;;4.67;;
13067;SDS011;6600;51.362;6.686;2023-05-10T09:38:17;8.60;;;4.43;;
13067;SDS011;6600;51.362;6.686;2023-05-10T09:40:42;9.73;;;4.87;;
13067;SDS011;6600;51.362;6.686;2023-05-10T09:43:19;8.57;;;4.80;;
13067;SDS011;6600;51.362;6.686;2023-05-10T09:45:45;9.90;;;4.97;;
13067;SDS011;6600;51.362;6.686;2023-05-10T09:48:13;10.73;;;4.80;;
13067;SDS011;6600;51.362;6.686;2023-05-10T09:50:38;10.03;;;4.77;;
13067;SDS011;6600;51.362;6.686;2023-05-10T09:53:04;7.60;;;4.30;;
13067;SDS011;6600;51.362;6.686;2023-05-10T09:58:01;8.07;;;4.30;;
13067;SDS011;6600;51.362;6.686;2023-05-10T10:00:27;10.03;;;4.73;;
13067;SDS011;6600;51.362;6.686;2023-05-10T10:02:56;9.87;;;5.17;;
13067;SDS011;6600;51.362;6.686;2023-05-10T10:05:29;9.17;;;5.47;;
13067;SDS011;6600;51.362;6.686;2023-05-10T10:07:59;9.67;;;5.33;;
13067;SDS011;6600;51.362;6.686;2023-05-10T10:10:27;8.70;;;5.47;;
13067;SDS011;6600;51.362;6.686;2023-05-10T10:12:53;9.83;;;5.00;;
13067;SDS011;6600;51.362;6.686;2023-05-10T10:15:22;9.33;;;5.63;;
13067;SDS011;6600;51.362;6.686;2023-05-10T10:17:48;10.03;;;6.47;;
13067;SDS011;6600;51.362;6.686;2023-05-10T10:20:15;10.67;;;5.30;;
13067;SDS011;6600;51.362;6.686;2023-05-10T10:22:41;7.03;;;4.47;;
13067;SDS011;6600;51.362;6.686;2023-05-10T10:25:09;10.73;;;4.87;;
13067;SDS011;6600;51.362;6.686;2023-05-10T10:35:31;9.10;;;4.70;;
13067;SDS011;6600;51.362;6.686;2023-05-10T10:37:57;8.57;;;4.80;;
13067;SDS011;6600;51.362;6.686;2023-05-10T10:42:51;6.43;;;4.17;;
13067;SDS011;6600;51.362;6.686;2023-05-10T10:45:17;5.90;;;3.80;;
13067;SDS011;6600;51.362;6.686;2023-05-10T10:47:42;6.47;;;3.87;;
13067;SDS011;6600;51.362;6.686;2023-05-10T10:50:10;4.60;;;3.37;;
13067;SDS011;6600;51.362;6.686;2023-05-10T10:52:38;4.43;;;3.50;;
13067;SDS011;6600;51.362;6.686;2023-05-10T11:02:51;5.30;;;3.73;;
13067;SDS011;6600;51.362;6.686;2023-05-10T11:05:23;7.43;;;4.07;;
13067;SDS011;6600;51.362;6.686;2023-05-10T11:07:58;6.53;;;4.13;;
13067;SDS011;6600;51.362;6.686;2023-05-10T11:10:26;8.13;;;4.17;;
13067;SDS011;6600;51.362;6.686;2023-05-10T11:15:32;6.10;;;4.10;;
13067;SDS011;6600;51.362;6.686;2023-05-10T11:20:51;5.90;;;4.10;;
13067;SDS011;6600;51.362;6.686;2023-05-10T11:23:55;5.53;;;3.43;;
13067;SDS011;6600;51.362;6.686;2023-05-10T11:26:22;5.30;;;3.70;;
13067;SDS011;6600;51.362;6.686;2023-05-10T11:28:52;4.77;;;3.67;;
13067;SDS011;6600;51.362;6.686;2023-05-10T11:31:20;6.33;;;3.57;;
13067;SDS011;6600;51.362;6.686;2023-05-10T11:33:47;5.87;;;3.73;;
13067;SDS011;6600;51.362;6.686;2023-05-10T11:36:17;6.67;;;3.77;;
13067;SDS011;6600;51.362;6.686;2023-05-10T11:38:44;5.47;;;3.77;;
13067;SDS011;6600;51.362;6.686;2023-05-10T11:41:10;8.03;;;3.80;;
13067;SDS011;6600;51.362;6.686;2023-05-10T11:43:38;4.17;;;3.40;;
13067;SDS011;6600;51.362;6.686;2023-05-10T11:46:11;4.13;;;3.10;;
13067;SDS011;6600;51.362;6.686;2023-05-10T11:48:41;4.27;;;3.27;;
13067;SDS011;6600;51.362;6.686;2023-05-10T11:51:07;4.20;;;3.17;;
13067;SDS011;6600;51.362;6.686;2023-05-10T11:53:34;6.63;;;3.53;;
13067;SDS011;6600;51.362;6.686;2023-05-10T11:56:06;4.97;;;3.27;;
13067;SDS011;6600;51.362;6.686;2023-05-10T11:58:32;6.00;;;3.20;;
13067;SDS011;6600;51.362;6.686;2023-05-10T12:01:01;4.73;;;2.97;;
13067;SDS011;6600;51.362;6.686;2023-05-10T12:03:27;4.30;;;3.30;;
13067;SDS011;6600;51.362;6.686;2023-05-10T12:05:54;4.43;;;3.13;;
13067;SDS011;6600;51.362;6.686;2023-05-10T12:08:21;6.60;;;3.87;;
13067;SDS011;6600;51.362;6.686;2023-05-10T12:10:47;5.30;;;3.27;;
13067;SDS011;6600;51.362;6.686;2023-05-10T12:13:15;7.90;;;3.83;;
13067;SDS011;6600;51.362;6.686;2023-05-10T12:15:42;6.73;;;4.17;;
13067;SDS011;6600;51.362;6.686;2023-05-10T12:18:14;6.13;;;3.97;;
13067;SDS011;6600;51.362;6.686;2023-05-10T12:20:40;6.40;;;4.03;;
13067;SDS011;6600;51.362;6.686;2023-05-10T12:23:07;6.27;;;4.30;;
13067;SDS011;6600;51.362;6.686;2023-05-10T12:25:35;8.03;;;4.20;;
13067;SDS011;6600;51.362;6.686;2023-05-10T12:28:03;6.63;;;3.97;;
13067;SDS011;6600;51.362;6.686;2023-05-10T12:30:31;8.70;;;4.37;;
13067;SDS011;6600;51.362;6.686;2023-05-10T12:33:07;7.60;;;4.03;;
13067;SDS011;6600;51.362;6.686;2023-05-10T12:35:43;5.60;;;3.87;;
13067;SDS011;6600;51.362;6.686;2023-05-10T12:38:26;5.63;;;3.60;;
13067;SDS011;6600;51.362;6.686;2023-05-10T12:40:58;5.07;;;3.10;;
13067;SDS011;6600;51.362;6.686;2023-05-10T12:43:25;5.60;;;3.27;;
13067;SDS011;6600;51.362;6.686;2023-05-10T12:45:51;3.77;;;3.30;;
13067;SDS011;6600;51.362;6.686;2023-05-10T12:48:16;5.60;;;4.00;;
13067;SDS011;6600;51.362;6.686;2023-05-10T12:50:41;4.90;;;3.40;;
13067;SDS011;6600;51.362;6.686;2023-05-10T12:53:07;5.13;;;2.87;;
13067;SDS011;6600;51.362;6.686;2023-05-10T12:55:38;5.73;;;3.53;;
13067;SDS011;6600;51.362;6.686;2023-05-10T12:58:03;5.47;;;3.57;;
13067;SDS011;6600;51.362;6.686;2023-05-10T13:00:29;4.83;;;3.37;;
13067;SDS011;6600;51.362;6.686;2023-05-10T13:02:54;4.13;;;3.07;;
13067;SDS011;6600;51.362;6.686;2023-05-10T13:05:20;2.70;;;2.00;;
13067;SDS011;6600;51.362;6.686;2023-05-10T13:07:45;4.20;;;3.13;;
13067;SDS011;6600;51.362;6.686;2023-05-10T13:10:10;4.83;;;3.00;;
13067;SDS011;6600;51.362;6.686;2023-05-10T13:12:36;3.60;;;2.80;;
13067;SDS011;6600;51.362;6.686;2023-05-10T13:15:02;3.77;;;2.93;;
13067;SDS011;6600;51.362;6.686;2023-05-10T13:17:28;4.17;;;3.13;;
13067;SDS011;6600;51.362;6.686;2023-05-10T13:19:53;4.83;;;3.30;;
13067;SDS011;6600;51.362;6.686;2023-05-10T13:22:19;6.10;;;3.90;;
13067;SDS011;6600;51.362;6.686;2023-05-10T13:24:44;5.77;;;3.57;;
13067;SDS011;6600;51.362;6.686;2023-05-10T13:27:10;4.87;;;3.47;;
13067;SDS011;6600;51.362;6.686;2023-05-10T13:29:35;4.17;;;3.37;;
13067;SDS011;6600;51.362;6.686;2023-05-10T13:32:00;5.33;;;3.00;;
13067;SDS011;6600;51.362;6.686;2023-05-10T13:34:26;5.07;;;3.73;;
13067;SDS011;6600;51.362;6.686;2023-05-10T13:36:52;5.80;;;3.57;;
13067;SDS011;6600;51.362;6.686;2023-05-10T13:39:19;5.23;;;3.03;;
13067;SDS011;6600;51.362;6.686;2023-05-10T13:41:45;7.03;;;3.50;;
13067;SDS011;6600;51.362;6.686;2023-05-10T13:44:12;4.50;;;3.63;;
13067;SDS011;6600;51.362;6.686;2023-05-10T13:46:38;6.83;;;4.13;;
13067;SDS011;6600;51.362;6.686;2023-05-10T13:49:04;5.63;;;3.83;;
13067;SDS011;6600;51.362;6.686;2023-05-10T13:51:29;6.97;;;4.47;;
13067;SDS011;6600;51.362;6.686;2023-05-10T13:53:56;4.77;;;3.43;;
13067;SDS011;6600;51.362;6.686;2023-05-10T13:56:22;7.83;;;4.40;;
13067;SDS011;6600;51.362;6.686;2023-05-10T13:58:47;8.40;;;4.77;;
13067;SDS011;6600;51.362;6.686;2023-05-10T14:01:12;9.00;;;4.77;;
13067;SDS011;6600;51.362;6.686;2023-05-10T14:03:38;4.17;;;3.30;;
13067;SDS011;6600;51.362;6.686;2023-05-10T14:06:03;7.97;;;4.63;;
13067;SDS011;6600;51.362;6.686;2023-05-10T14:08:29;8.00;;;5.43;;
13067;SDS011;6600;51.362;6.686;2023-05-10T14:10:54;9.23;;;5.10;;
13067;SDS011;6600;51.362;6.686;2023-05-10T14:13:21;10.27;;;6.20;;
13067;SDS011;6600;51.362;6.686;2023-05-10T14:15:46;8.37;;;5.13;;
13067;SDS011;6600;51.362;6.686;2023-05-10T14:18:12;9.47;;;5.53;;
13067;SDS011;6600;51.362;6.686;2023-05-10T14:20:37;12.67;;;5.80;;
13067;SDS011;6600;51.362;6.686;2023-05-10T14:23:02;10.00;;;5.67;;
13067;SDS011;6600;51.362;6.686;2023-05-10T14:25:28;8.90;;;5.13;;
13067;SDS011;6600;51.362;6.686;2023-05-10T14:27:53;9.20;;;5.90;;
13067;SDS011;6600;51.362;6.686;2023-05-10T14:30:19;8.47;;;4.67;;
13067;SDS011;6600;51.362;6.686;2023-05-10T14:32:45;10.00;;;4.80;;
13067;SDS011;6600;51.362;6.686;2023-05-10T14:35:11;10.43;;;5.83;;
13067;SDS011;6600;51.362;6.686;2023-05-10T14:37:37;9.10;;;4.93;;
13067;SDS011;6600;51.362;6.686;2023-05-10T14:40:03;6.53;;;4.50;;
13067;SDS011;6600;51.362;6.686;2023-05-10T14:42:29;9.93;;;5.90;;
13067;SDS011;6600;51.362;6.686;2023-05-10T14:44:56;8.70;;;5.20;;
13067;SDS011;6600;51.362;6.686;2023-05-10T14:47:21;8.97;;;5.37;;
13067;SDS011;6600;51.362;6.686;2023-05-10T14:49:47;5.97;;;4.47;;
13067;SDS011;6600;51.362;6.686;2023-05-10T14:52:12;4.77;;;3.67;;
13067;SDS011;6600;51.362;6.686;2023-05-10T14:54:39;8.13;;;3.53;;
13067;SDS011;6600;51.362;6.686;2023-05-10T14:57:05;7.20;;;3.83;;
13067;SDS011;6600;51.362;6.686;2023-05-10T14:59:31;5.43;;;4.13;;
13067;SDS011;6600;51.362;6.686;2023-05-10T15:01:57;6.97;;;3.77;;
13067;SDS011;6600;51.362;6.686;2023-05-10T15:04:22;6.67;;;4.10;;
13067;SDS011;6600;51.362;6.686;2023-05-10T15:06:47;6.47;;;4.40;;
13067;SDS011;6600;51.362;6.686;2023-05-10T15:09:13;6.97;;;4.03;;
13067;SDS011;6600;51.362;6.686;2023-05-10T15:11:38;6.93;;;4.23;;
13067;SDS011;6600;51.362;6.686;2023-05-10T15:14:03;6.03;;;4.00;;
13067;SDS011;6600;51.362;6.686;2023-05-10T15:16:29;5.17;;;3.37;;
13067;SDS011;6600;51.362;6.686;2023-05-10T15:18:54;6.07;;;4.13;;
13067;SDS011;6600;51.362;6.686;2023-05-10T15:21:20;4.77;;;3.20;;
13067;SDS011;6600;51.362;6.686;2023-05-10T15:23:45;5.57;;;3.03;;
13067;SDS011;6600;51.362;6.686;2023-05-10T15:26:11;4.30;;;2.63;;
13067;SDS011;6600;51.362;6.686;2023-05-10T15:28:36;3.03;;;2.03;;
13067;SDS011;6600;51.362;6.686;2023-05-10T15:31:01;2.23;;;2.03;;
13067;SDS011;6600;51.362;6.686;2023-05-10T15:33:27;2.30;;;1.83;;
13067;SDS011;6600;51.362;6.686;2023-05-10T15:35:53;1.70;;;1.50;;
13067;SDS011;6600;51.362;6.686;2023-05-10T15:38:19;1.77;;;1.60;;
13067;SDS011;6600;51.362;6.686;2023-05-10T15:40:44;1.60;;;1.27;;
13067;SDS011;6600;51.362;6.686;2023-05-10T15:43:09;2.03;;;1.43;;